Time;durP1;ratioP1;P1;durP2;ratioP2;P2;SDS_P1;SDS_P2;PMS_P1;PMS_P2;Temp;Humidity;BMP_temperature;BMP_pressure;BME280_temperature;BME280_humidity;BME280_pressure;Samples;Min_cycle;Max_cycle;Signal;HPM_P1;HPM_P2
2022/03/15 00:00:10;;;;;;;17.83;6.55;;;;;;;10.53;55.01;102864.25;5164173;28;20421;-53
2022/03/15 00:02:42;;;;;;;16.70;7.13;;;;;;;10.53;55.02;102866.88;5165502;28;20428;-55
2022/03/15 00:05:15;;;;;;;19.08;6.70;;;;;;;10.54;55.02;102867.72;5168279;28;20507;-55
2022/03/15 00:07:47;;;;;;;16.20;6.70;;;;;;;10.54;55.07;102862.44;5162541;28;20425;-54
2022/03/15 00:10:20;;;;;;;15.88;6.47;;;;;;;10.30;54.92;102817.31;5161632;28;20555;-55
2022/03/15 00:12:56;;;;;;;20.23;7.22;;;;;;;10.58;54.88;102861.28;5165261;28;20479;-54
2022/03/15 00:15:32;;;;;;;22.65;7.35;;;;;;;10.59;54.99;102858.56;5157176;28;20845;-55
2022/03/15 00:18:05;;;;;;;18.35;6.38;;;;;;;10.62;55.09;102854.84;5165381;28;20436;-52
2022/03/15 00:20:41;;;;;;;24.58;6.80;;;;;;;10.64;54.97;102858.25;5167460;28;20402;-55
2022/03/15 00:23:13;;;;;;;21.85;7.03;;;;;;;10.64;55.01;102857.41;5166527;28;20407;-52
2022/03/15 00:25:46;;;;;;;20.20;6.80;;;;;;;10.65;54.95;102848.50;5161737;28;20496;-52
2022/03/15 00:28:22;;;;;;;18.03;6.77;;;;;;;10.63;55.07;102847.78;5156180;28;20878;-59
2022/03/15 00:30:54;;;;;;;25.13;7.70;;;;;;;10.59;55.14;102840.06;5164700;28;20508;-54
2022/03/15 00:33:26;;;;;;;15.00;6.40;;;;;;;10.61;55.17;102842.59;5166863;28;20480;-57
2022/03/15 00:36:00;;;;;;;18.23;6.75;;;;;;;10.51;55.09;102831.78;5166334;28;20496;-55
2022/03/15 00:38:32;;;;;;;21.23;6.05;;;;;;;10.57;55.20;102841.09;5164332;28;21012;-54
2022/03/15 00:41:04;;;;;;;20.77;6.10;;;;;;;10.58;55.31;102833.06;5165400;28;20500;-54
2022/03/15 00:43:38;;;;;;;25.17;5.90;;;;;;;10.52;55.10;102822.91;5165337;28;20427;-56
2022/03/15 00:46:11;;;;;;;19.08;6.07;;;;;;;10.61;55.09;102827.56;5163344;28;20531;-52
2022/03/15 00:48:43;;;;;;;17.38;6.00;;;;;;;10.40;54.89;102797.28;5166227;28;20504;-51
2022/03/15 00:51:15;;;;;;;16.00;5.67;;;;;;;10.64;54.93;102828.34;5167405;28;20814;-57
2022/03/15 00:53:48;;;;;;;17.35;6.65;;;;;;;10.66;54.82;102842.31;5165259;28;20516;-53
2022/03/15 00:56:20;;;;;;;16.80;6.63;;;;;;;10.63;54.87;102842.50;5171595;28;20425;-51
2022/03/15 00:59:34;;;;;;;15.20;5.82;;;;;;;10.61;54.82;102840.78;5170779;28;20433;-54
2022/03/15 01:02:07;;;;;;;16.00;6.28;;;;;;;10.58;54.84;102833.06;5167933;28;20496;-53
2022/03/15 01:04:39;;;;;;;14.32;6.22;;;;;;;10.57;54.81;102825.25;5169620;28;20420;-52
2022/03/15 01:07:12;;;;;;;13.90;5.68;;;;;;;10.51;54.86;102818.56;5170396;28;20421;-51
2022/03/15 01:09:45;;;;;;;18.05;5.57;;;;;;;10.46;54.78;102812.72;5170732;28;20420;-51
2022/03/15 01:12:18;;;;;;;14.97;5.57;;;;;;;10.48;54.85;102826.69;5167131;28;20547;-55
2022/03/15 01:14:51;;;;;;;15.32;5.63;;;;;;;10.40;54.95;102818.41;5166424;28;20491;-51
2022/03/15 01:17:24;;;;;;;19.92;5.88;;;;;;;10.21;54.82;102815.25;5165105;28;20409;-52
2022/03/15 01:19:56;;;;;;;16.05;5.30;;;;;;;10.33;54.80;102817.13;5170180;28;21971;-51
2022/03/15 01:22:29;;;;;;;15.23;5.65;;;;;;;10.34;54.96;102824.09;5170442;28;20416;-54
2022/03/15 01:25:02;;;;;;;14.80;6.57;;;;;;;9.62;54.83;102710.75;5167003;28;20437;-54
2022/03/15 01:27:34;;;;;;;17.58;5.88;;;;;;;10.23;54.93;102806.28;5170816;28;20510;-58
2022/03/15 01:30:09;;;;;;;14.10;5.93;;;;;;;10.28;54.94;102819.22;5168824;28;20492;-54
2022/03/15 01:32:42;;;;;;;11.50;4.85;;;;;;;10.26;54.94;102814.03;5167778;28;20459;-54
2022/03/15 01:35:14;;;;;;;17.77;5.82;;;;;;;10.26;54.89;102818.44;5167729;28;20440;-54
2022/03/15 01:37:47;;;;;;;13.48;6.18;;;;;;;10.25;54.96;102811.44;5169493;28;20444;-56
2022/03/15 01:40:21;;;;;;;16.85;6.22;;;;;;;10.25;55.05;102811.44;5164103;28;20427;-56
2022/03/15 01:42:53;;;;;;;14.77;5.78;;;;;;;10.25;55.05;102804.41;5161166;28;20427;-55
2022/03/15 01:45:34;;;;;;;12.48;5.30;;;;;;;10.22;55.08;102794.03;5169787;28;20412;-55
2022/03/15 01:48:09;;;;;;;16.63;6.60;;;;;;;9.63;54.84;102691.38;5166462;28;20439;-55
2022/03/15 01:50:41;;;;;;;16.98;6.30;;;;;;;10.29;55.09;102799.78;5168363;28;20425;-56
2022/03/15 01:53:16;;;;;;;16.48;6.07;;;;;;;10.27;55.09;102785.84;5168566;28;20429;-54
2022/03/15 01:55:49;;;;;;;18.92;6.50;;;;;;;10.31;55.17;102797.88;5173948;28;20421;-57
2022/03/15 01:58:22;;;;;;;14.37;6.37;;;;;;;10.31;55.26;102792.59;5187900;28;20418;-53
2022/03/15 02:00:56;;;;;;;17.80;6.47;;;;;;;10.34;55.04;102787.13;5187770;28;20861;-55
2022/03/15 02:03:28;;;;;;;16.48;6.70;;;;;;;10.34;55.07;102795.91;5184250;28;20437;-55
2022/03/15 02:06:01;;;;;;;16.45;6.22;;;;;;;10.34;54.90;102787.13;5186568;28;20915;-57
2022/03/15 02:08:34;;;;;;;15.38;5.70;;;;;;;10.38;55.35;102783.34;5189743;28;20423;-64
2022/03/15 02:11:08;;;;;;;22.65;6.75;;;;;;;10.39;55.01;102785.03;5185025;28;20438;-55
2022/03/15 02:13:41;;;;;;;17.73;6.32;;;;;;;10.37;55.18;102782.50;5186174;28;20425;-54
2022/03/15 02:16:16;;;;;;;18.55;6.75;;;;;;;10.34;55.17;102777.44;5187038;28;20563;-55
2022/03/15 02:18:48;;;;;;;13.93;6.03;;;;;;;10.29;55.17;102773.38;5185234;28;20421;-59
2022/03/15 02:21:23;;;;;;;16.35;6.47;;;;;;;10.31;55.23;102776.75;5188900;28;20486;-55
2022/03/15 02:23:57;;;;;;;17.95;6.75;;;;;;;10.27;55.11;102770.00;5186634;28;20443;-52
2022/03/15 02:26:29;;;;;;;18.30;5.60;;;;;;;10.26;55.16;102763.00;5189110;28;20486;-55
2022/03/15 02:29:01;;;;;;;13.35;5.65;;;;;;;10.15;55.33;102748.69;5186822;28;20902;-55
2022/03/15 02:31:34;;;;;;;19.20;7.47;;;;;;;10.22;55.08;102756.19;5187841;28;20756;-55
2022/03/15 02:34:06;;;;;;;15.23;6.65;;;;;;;10.19;55.06;102759.91;5186997;28;20490;-54
2022/03/15 02:36:40;;;;;;;19.37;6.83;;;;;;;10.18;54.96;102754.72;5188280;28;20427;-57
2022/03/15 02:39:13;;;;;;;14.00;6.72;;;;;;;10.10;54.91;102757.88;5187704;28;20824;-55
2022/03/15 02:41:46;;;;;;;13.15;6.85;;;;;;;10.03;54.78;102741.56;5185870;28;20485;-53
2022/03/15 02:44:18;;;;;;;13.20;6.53;;;;;;;9.98;55.02;102743.66;5186413;28;20403;-51
2022/03/15 02:46:51;;;;;;;16.98;6.50;;;;;;;9.92;54.95;102744.06;5178253;28;20482;-59
2022/03/15 02:49:23;;;;;;;21.00;7.28;;;;;;;9.76;54.91;102716.97;5187660;28;20517;-53
2022/03/15 02:51:59;;;;;;;16.83;7.07;;;;;;;9.91;55.11;102748.50;5188394;28;20415;-58
2022/03/15 02:54:32;;;;;;;16.95;7.00;;;;;;;9.88;55.02;102747.84;5186645;28;20602;-55
2022/03/15 02:57:04;;;;;;;16.13;6.85;;;;;;;9.77;55.05;102734.50;5185819;28;20522;-55
2022/03/15 02:59:38;;;;;;;20.23;7.35;;;;;;;9.78;55.14;102746.72;5188544;28;20495;-55
2022/03/15 03:02:11;;;;;;;17.63;6.82;;;;;;;9.69;55.19;102732.31;5183327;28;20871;-55
2022/03/15 03:04:44;;;;;;;15.60;6.57;;;;;;;9.62;55.06;102726.59;5185326;28;20406;-58
2022/03/15 03:07:19;;;;;;;20.00;7.38;;;;;;;9.59;55.19;102734.69;5185454;28;20395;-57
2022/03/15 03:09:52;;;;;;;17.73;7.53;;;;;;;9.60;55.30;102728.50;5182243;28;20963;-56
2022/03/15 03:12:29;;;;;;;18.07;7.17;;;;;;;8.85;55.25;102619.81;5188402;28;20825;-56
2022/03/15 03:15:02;;;;;;;15.88;7.57;;;;;;;9.53;55.27;102727.16;5185044;28;20423;-54
2022/03/15 03:17:35;;;;;;;20.63;7.60;;;;;;;9.50;55.23;102732.63;5187168;28;20974;-54
2022/03/15 03:20:09;;;;;;;16.60;7.78;;;;;;;9.47;55.44;102724.91;5184785;28;20426;-52
2022/03/15 03:22:43;;;;;;;18.50;6.95;;;;;;;9.44;55.59;102722.47;5188376;28;20511;-55
2022/03/15 03:25:16;;;;;;;15.02;7.00;;;;;;;9.40;55.33;102721.81;5186461;28;20418;-56
2022/03/15 03:27:48;;;;;;;14.85;6.82;;;;;;;9.33;55.61;102714.41;5185542;28;20406;-53
2022/03/15 03:30:21;;;;;;;16.90;7.38;;;;;;;9.37;55.44;102718.53;5190999;28;20846;-51
2022/03/15 03:32:53;;;;;;;18.02;6.78;;;;;;;9.34;55.42;102726.63;5186477;28;20430;-53
2022/03/15 03:35:27;;;;;;;12.93;6.75;;;;;;;9.29;55.70;102716.38;5187101;28;20423;-58
2022/03/15 03:38:01;;;;;;;13.82;6.97;;;;;;;9.28;55.65;102711.19;5185152;28;20431;-55
2022/03/15 03:40:33;;;;;;;13.03;6.97;;;;;;;9.24;55.71;102711.38;5186503;28;20419;-52
2022/03/15 03:43:06;;;;;;;12.95;6.80;;;;;;;9.31;55.58;102727.66;5185228;28;20533;-53
2022/03/15 03:45:39;;;;;;;16.13;7.20;;;;;;;9.30;55.74;102720.72;5186474;28;20619;-54
2022/03/15 03:48:12;;;;;;;16.50;7.72;;;;;;;9.28;55.74;102716.47;5186863;28;20415;-54
2022/03/15 03:50:44;;;;;;;17.80;7.22;;;;;;;9.15;55.66;102695.28;5186915;28;20413;-56
2022/03/15 03:53:18;;;;;;;18.95;7.78;;;;;;;9.27;55.66;102720.91;5185448;28;20513;-54
2022/03/15 03:55:51;;;;;;;18.08;8.45;;;;;;;9.22;55.95;102715.06;5181057;28;20419;-54
2022/03/15 03:58:24;;;;;;;12.98;7.30;;;;;;;9.25;55.87;102720.13;5186514;28;20485;-53
2022/03/15 04:00:56;;;;;;;15.88;7.85;;;;;;;9.23;55.77;102719.41;5185807;28;20888;-57
2022/03/15 04:03:29;;;;;;;17.05;7.72;;;;;;;9.10;55.81;102703.47;5185794;28;20519;-58
2022/03/15 04:06:04;;;;;;;27.10;10.65;;;;;;;9.18;55.87;102714.41;5185120;28;20426;-56
2022/03/15 04:08:38;;;;;;;25.73;10.32;;;;;;;9.22;56.11;102713.25;5183480;28;20446;-61
2022/03/15 04:11:11;;;;;;;26.92;10.15;;;;;;;9.14;55.99;102702.38;5184634;28;20466;-56
2022/03/15 04:13:43;;;;;;;23.80;10.45;;;;;;;9.20;56.24;102715.16;5185916;28;21014;-54
2022/03/15 04:16:16;;;;;;;25.65;12.63;;;;;;;9.23;56.03;102712.34;5186368;28;20419;-54
2022/03/15 04:18:48;;;;;;;23.13;12.60;;;;;;;9.28;56.14;102724.38;5182819;28;20489;-55
2022/03/15 04:21:24;;;;;;;37.35;13.50;;;;;;;9.29;56.23;102721.66;5167643;28;20871;-55
2022/03/15 04:23:58;;;;;;;29.00;13.85;;;;;;;9.31;56.00;102730.31;5183426;28;20918;-53
2022/03/15 04:26:31;;;;;;;34.30;14.73;;;;;;;9.31;56.18;102721.56;5188126;28;20839;-51
2022/03/15 04:29:03;;;;;;;32.10;15.80;;;;;;;9.26;56.13;102718.34;5189442;28;20487;-52
2022/03/15 04:31:35;;;;;;;32.88;14.60;;;;;;;9.34;56.08;102732.75;5188084;28;20423;-55
2022/03/15 04:34:08;;;;;;;32.40;13.80;;;;;;;9.35;56.42;102728.31;5185429;28;20502;-52
2022/03/15 04:36:42;;;;;;;28.02;13.35;;;;;;;9.35;56.35;102728.31;5187428;28;20404;-51
2022/03/15 04:39:16;;;;;;;33.30;13.50;;;;;;;9.29;56.26;102712.88;5185644;28;20403;-52
2022/03/15 04:41:50;;;;;;;32.45;14.07;;;;;;;9.28;56.39;102711.19;5186307;28;20406;-54
2022/03/15 04:44:23;;;;;;;37.55;15.13;;;;;;;9.35;56.40;102715.13;5184222;28;20516;-52
2022/03/15 04:46:55;;;;;;;32.03;16.30;;;;;;;9.37;56.45;102715.91;5184504;28;20490;-52
2022/03/15 04:49:31;;;;;;;36.30;16.95;;;;;;;9.33;56.61;102698.59;5187627;28;20520;-56
2022/03/15 04:52:04;;;;;;;32.33;16.30;;;;;;;9.19;56.51;102673.91;5187646;28;20433;-55
2022/03/15 04:54:38;;;;;;;34.33;15.98;;;;;;;9.42;56.71;102703.28;5183264;28;21028;-56
2022/03/15 04:57:10;;;;;;;34.10;15.90;;;;;;;9.46;56.40;102704.78;5187549;28;20432;-56
2022/03/15 04:59:43;;;;;;;26.45;13.20;;;;;;;9.45;56.69;102703.09;5184670;28;20506;-55
2022/03/15 05:02:15;;;;;;;31.15;15.68;;;;;;;9.44;56.59;102702.22;5185268;28;20497;-52
2022/03/15 05:04:48;;;;;;;34.50;15.30;;;;;;;8.91;56.54;102610.69;5175694;28;20473;-54
2022/03/15 05:07:20;;;;;;;35.35;16.42;;;;;;;9.46;56.67;102694.22;5181607;28;20942;-55
2022/03/15 05:12:45;;;;;;;36.95;17.42;;;;;;;9.41;56.78;102685.75;5184984;28;20403;-54
2022/03/15 05:15:18;;;;;;;38.25;18.63;;;;;;;9.50;56.79;102698.34;5185181;28;20396;-55
2022/03/15 05:17:50;;;;;;;37.42;17.73;;;;;;;9.53;56.66;102679.69;5180823;28;20432;-57
2022/03/15 05:20:23;;;;;;;40.13;17.95;;;;;;;9.55;57.12;102680.44;5186841;28;20761;-57
2022/03/15 05:22:56;;;;;;;34.10;17.25;;;;;;;9.56;56.81;102679.50;5174722;28;20414;-56
2022/03/15 05:25:30;;;;;;;37.40;18.77;;;;;;;9.57;56.87;102690.88;5186092;28;20732;-53
2022/03/15 05:28:02;;;;;;;35.50;18.48;;;;;;;9.53;57.01;102669.13;5188239;28;20779;-55
2022/03/15 05:30:35;;;;;;;34.20;17.92;;;;;;;9.57;57.01;102675.94;5190543;28;20537;-52
2022/03/15 05:33:07;;;;;;;36.37;19.00;;;;;;;9.47;57.13;102658.97;5188342;28;20512;-53
2022/03/15 05:35:40;;;;;;;45.22;18.65;;;;;;;9.57;57.17;102665.38;5188131;28;20411;-56
2022/03/15 05:38:12;;;;;;;37.35;18.35;;;;;;;9.57;57.13;102669.78;5189763;28;20419;-55
2022/03/15 05:40:46;;;;;;;36.72;18.45;;;;;;;9.55;57.25;102671.69;5190957;28;20505;-54
2022/03/15 05:43:19;;;;;;;39.40;20.13;;;;;;;9.53;57.37;102674.41;5177715;28;20847;-51
2022/03/15 05:45:52;;;;;;;41.88;20.90;;;;;;;9.52;57.41;102671.91;5188802;28;20407;-55
2022/03/15 05:48:25;;;;;;;40.33;20.02;;;;;;;9.39;57.38;102645.47;5188930;28;20915;-54
2022/03/15 05:50:57;;;;;;;35.20;19.50;;;;;;;9.45;57.20;102658.25;5190614;28;20411;-55
2022/03/15 05:53:29;;;;;;;37.95;19.67;;;;;;;9.55;57.42;102667.25;5190037;28;20509;-55
2022/03/15 05:56:03;;;;;;;43.05;22.30;;;;;;;9.59;57.37;102662.63;5191124;28;20506;-55
2022/03/15 05:58:36;;;;;;;40.92;21.42;;;;;;;9.61;57.56;102656.31;5190702;28;20419;-54
2022/03/15 06:01:08;;;;;;;38.33;20.08;;;;;;;9.63;57.30;102654.44;5188338;28;23522;-54
2022/03/15 06:03:41;;;;;;;41.80;21.05;;;;;;;9.55;57.38;102640.88;5190105;28;20411;-56
2022/03/15 06:06:13;;;;;;;37.00;20.00;;;;;;;9.67;57.45;102655.09;5190901;28;20482;-56
2022/03/15 06:08:45;;;;;;;44.10;20.50;;;;;;;9.61;57.50;102645.75;5201299;28;20431;-56
2022/03/15 06:11:20;;;;;;;39.00;20.50;;;;;;;9.59;57.52;102657.34;5190217;28;20442;-54
2022/03/15 06:13:52;;;;;;;38.60;20.27;;;;;;;9.61;57.59;102661.59;5188711;28;20859;-55
2022/03/15 06:16:25;;;;;;;42.65;20.88;;;;;;;9.63;57.71;102656.19;5191398;28;20498;-55
2022/03/15 06:18:57;;;;;;;39.85;20.92;;;;;;;9.60;57.68;102654.63;5174825;28;20417;-56
2022/03/15 06:21:30;;;;;;;41.17;21.75;;;;;;;9.50;57.68;102632.41;5183256;28;20840;-53
2022/03/15 06:24:02;;;;;;;42.03;21.02;;;;;;;9.67;57.46;102653.28;5184963;28;20522;-54
2022/03/15 06:26:37;;;;;;;41.30;20.98;;;;;;;9.72;57.76;102660.03;5183841;28;20513;-56
2022/03/15 06:29:09;;;;;;;40.28;21.02;;;;;;;9.72;57.52;102646.84;5187201;28;20485;-54
2022/03/15 06:31:42;;;;;;;45.60;21.55;;;;;;;9.52;57.75;102604.16;5187279;28;20498;-55
2022/03/15 06:34:14;;;;;;;50.20;22.77;;;;;;;9.76;57.49;102645.72;5184588;28;20482;-55
2022/03/15 06:36:47;;;;;;;43.05;22.25;;;;;;;9.80;57.54;102644.56;5187453;28;20934;-54
2022/03/15 06:39:19;;;;;;;54.73;23.60;;;;;;;9.78;57.76;102638.53;5184675;28;20435;-56
2022/03/15 06:41:54;;;;;;;45.88;23.15;;;;;;;9.79;57.88;102633.19;5186169;28;20427;-54
2022/03/15 06:44:27;;;;;;;48.30;22.73;;;;;;;9.79;57.65;102621.78;5188358;28;20450;-58
2022/03/15 06:46:59;;;;;;;51.40;23.23;;;;;;;9.89;57.59;102638.69;5186693;28;20469;-56
2022/03/15 06:49:31;;;;;;;50.42;23.88;;;;;;;9.89;57.77;102626.34;5189805;28;20472;-54
2022/03/15 06:52:05;;;;;;;44.15;22.63;;;;;;;9.94;57.88;102639.25;5187677;28;20499;-58
2022/03/15 06:54:38;;;;;;;48.47;22.85;;;;;;;9.96;57.70;102633.84;5184485;28;20419;-55
2022/03/15 06:57:14;;;;;;;40.78;21.63;;;;;;;10.01;57.72;102647.59;5187884;28;20418;-56
2022/03/15 06:59:47;;;;;;;45.60;22.27;;;;;;;9.96;57.83;102624.13;5189497;28;20877;-55
2022/03/15 07:02:20;;;;;;;43.25;22.13;;;;;;;10.06;57.82;102635.75;5186943;28;20435;-58
2022/03/15 07:04:52;;;;;;;51.65;24.92;;;;;;;10.09;57.69;102640.84;5187742;28;20867;-57
2022/03/15 07:07:25;;;;;;;49.13;23.67;;;;;;;10.11;57.87;102636.31;5197971;28;20488;-55
2022/03/15 07:10:01;;;;;;;48.22;22.80;;;;;;;10.15;57.71;102635.16;5200137;28;20415;-55
2022/03/15 07:12:36;;;;;;;40.67;21.95;;;;;;;9.90;57.63;102590.22;5190519;28;20415;-53
2022/03/15 07:15:10;;;;;;;43.08;23.42;;;;;;;10.16;57.90;102631.56;5188408;28;20505;-52
2022/03/15 07:17:51;;;;;;;42.65;21.58;;;;;;;10.18;57.94;102633.25;5190285;28;20826;-55
2022/03/15 07:20:25;;;;;;;36.67;21.60;;;;;;;10.18;57.98;102622.69;5186361;28;20415;-56
2022/03/15 07:22:57;;;;;;;45.47;22.50;;;;;;;10.26;57.99;102636.25;5192239;28;20580;-55
2022/03/15 07:25:29;;;;;;;45.33;23.33;;;;;;;10.30;57.79;102633.31;5193178;28;20807;-54
2022/03/15 07:28:04;;;;;;;40.33;21.77;;;;;;;10.34;57.92;102631.28;5188371;28;20427;-52
2022/03/15 07:30:36;;;;;;;44.05;22.20;;;;;;;10.36;57.95;102642.63;5187268;28;20418;-55
2022/03/15 07:33:09;;;;;;;36.88;21.92;;;;;;;10.36;57.87;102637.31;5169338;28;23581;-55
2022/03/15 07:35:41;;;;;;;47.40;21.17;;;;;;;10.21;57.97;102596.94;5178796;28;20490;-54
2022/03/15 07:38:17;;;;;;;41.17;20.90;;;;;;;10.48;58.02;102635.66;5183220;28;20838;-57
2022/03/15 07:40:52;;;;;;;48.97;22.70;;;;;;;10.46;57.86;102619.91;5186211;28;20423;-55
2022/03/15 07:43:26;;;;;;;47.30;21.75;;;;;;;10.57;57.94;102635.88;5189717;28;20423;-59
2022/03/15 07:45:59;;;;;;;44.85;22.20;;;;;;;10.63;57.89;102633.75;5188943;28;20415;-59
2022/03/15 07:48:31;;;;;;;54.13;23.02;;;;;;;10.61;57.72;102618.84;5182926;28;20417;-57
2022/03/15 07:51:04;;;;;;;46.70;22.70;;;;;;;10.73;57.74;102624.22;5184657;28;20889;-57
2022/03/15 07:53:36;;;;;;;42.95;21.60;;;;;;;10.76;57.78;102624.84;5160155;28;21106;-55
2022/03/15 07:56:10;;;;;;;45.00;22.02;;;;;;;10.79;57.80;102624.66;5183514;28;20855;-56
2022/03/15 07:58:44;;;;;;;55.92;23.42;;;;;;;10.86;57.68;102630.34;5184190;28;20420;-53
2022/03/15 08:01:16;;;;;;;44.92;21.35;;;;;;;10.91;57.68;102627.38;5185964;28;20636;-54
2022/03/15 08:03:49;;;;;;;40.28;21.35;;;;;;;10.99;57.66;102641.72;5187104;28;20415;-46
2022/03/15 08:06:21;;;;;;;40.60;21.85;;;;;;;11.05;57.46;102638.66;5184144;28;20492;-54
2022/03/15 08:08:57;;;;;;;38.95;21.55;;;;;;;11.12;57.44;102630.28;5183162;28;20480;-55
2022/03/15 08:11:29;;;;;;;43.25;20.80;;;;;;;11.18;57.40;102630.72;5184950;28;20469;-58
2022/03/15 08:14:04;;;;;;;41.63;22.10;;;;;;;11.20;57.38;102617.38;5186652;28;20957;-56
2022/03/15 08:16:36;;;;;;;43.17;21.10;;;;;;;11.15;57.44;102603.63;5184968;28;20430;-53
2022/03/15 08:19:09;;;;;;;39.53;21.10;;;;;;;11.30;57.19;102619.25;5185352;28;20427;-53
2022/03/15 08:21:41;;;;;;;38.83;21.05;;;;;;;11.33;57.24;102620.81;5185769;28;20977;-57
2022/03/15 08:24:16;;;;;;;45.63;22.45;;;;;;;11.39;57.18;102612.44;5184986;28;20427;-54
2022/03/15 08:26:49;;;;;;;39.33;20.95;;;;;;;11.49;57.07;102618.75;5187055;28;20469;-55
2022/03/15 08:29:23;;;;;;;42.88;21.50;;;;;;;11.58;57.05;102622.50;5182136;28;20944;-58
2022/03/15 08:31:55;;;;;;;39.17;21.13;;;;;;;11.65;57.04;102615.00;5183773;28;20514;-51
2022/03/15 08:34:28;;;;;;;40.30;21.25;;;;;;;11.70;56.79;102612.84;5184609;28;20493;-55
2022/03/15 08:37:00;;;;;;;41.28;20.63;;;;;;;11.75;56.74;102622.13;5180614;28;20419;-52
2022/03/15 08:39:33;;;;;;;42.25;20.77;;;;;;;11.64;56.86;102579.72;5185436;28;20741;-55
2022/03/15 08:42:07;;;;;;;33.78;21.33;;;;;;;12.03;56.64;102611.31;5185539;28;20553;-55
2022/03/15 08:44:42;;;;;;;41.00;21.63;;;;;;;12.03;56.57;102576.88;5185073;28;20419;-55
2022/03/15 08:47:14;;;;;;;41.33;21.58;;;;;;;12.43;56.40;102620.56;5185905;28;20407;-51
2022/03/15 08:49:47;;;;;;;39.97;20.67;;;;;;;12.62;56.14;102616.47;5184008;28;20517;-53
2022/03/15 08:52:19;;;;;;;35.78;19.00;;;;;;;12.71;56.10;102612.25;5186877;28;20435;-57
2022/03/15 08:54:51;;;;;;;35.45;19.08;;;;;;;12.79;56.13;102610.72;5180271;28;20430;-57
2022/03/15 08:57:24;;;;;;;32.95;19.63;;;;;;;12.92;55.93;102608.75;5166657;28;21024;-55
2022/03/15 08:59:59;;;;;;;31.38;18.58;;;;;;;13.07;55.67;102617.31;5163215;28;20503;-55
2022/03/15 09:02:31;;;;;;;35.30;18.17;;;;;;;13.11;55.69;102615.25;5162808;28;20699;-56
2022/03/15 09:05:04;;;;;;;37.08;18.30;;;;;;;13.10;55.72;102616.19;5166028;28;20499;-53
2022/03/15 09:07:37;;;;;;;39.27;19.30;;;;;;;13.09;55.60;102606.56;5164249;28;20413;-54
2022/03/15 09:10:09;;;;;;;40.85;18.00;;;;;;;13.14;55.50;102617.66;5167001;28;21192;-53
2022/03/15 09:12:42;;;;;;;39.05;18.13;;;;;;;13.07;55.39;102592.59;5169826;28;20495;-53
2022/03/15 09:15:16;;;;;;;30.83;17.08;;;;;;;13.15;55.27;102611.38;5169135;28;20419;-51
2022/03/15 09:17:49;;;;;;;34.13;17.27;;;;;;;13.13;55.38;102619.47;5168515;28;20495;-52
2022/03/15 09:20:21;;;;;;;32.10;17.87;;;;;;;13.18;55.05;102600.53;5155190;28;20492;-58
2022/03/15 09:22:54;;;;;;;33.85;17.40;;;;;;;13.22;54.99;102601.94;5167159;28;20421;-54
2022/03/15 09:25:27;;;;;;;34.90;17.35;;;;;;;13.36;54.83;102598.22;5168025;28;20492;-55
2022/03/15 09:28:00;;;;;;;31.13;16.70;;;;;;;13.57;54.65;102591.16;5168621;28;20459;-56
2022/03/15 09:30:34;;;;;;;32.28;16.75;;;;;;;13.88;54.38;102593.91;5167748;28;20523;-57
2022/03/15 09:33:07;;;;;;;34.95;15.77;;;;;;;14.05;54.04;102579.22;5169488;28;20901;-50
2022/03/15 09:35:40;;;;;;;30.10;15.60;;;;;;;14.38;53.72;102585.28;5166614;28;30411;-50
2022/03/15 09:38:13;;;;;;;33.70;15.85;;;;;;;14.58;53.60;102571.13;5163296;28;20424;-53
2022/03/15 09:40:50;;;;;;;42.80;15.98;;;;;;;14.86;53.22;102577.53;5170199;28;20420;-55
2022/03/15 09:43:25;;;;;;;36.90;16.65;;;;;;;14.90;53.25;102575.47;5166465;28;20750;-56
2022/03/15 09:46:03;;;;;;;27.80;14.88;;;;;;;14.94;52.86;102577.69;5170504;28;20413;-53
2022/03/15 09:48:36;;;;;;;31.58;16.85;;;;;;;15.02;53.04;102581.47;5168016;28;20777;-55
2022/03/15 09:51:14;;;;;;;36.28;18.48;;;;;;;15.05;52.81;102573.22;5166956;28;20429;-56
2022/03/15 09:53:47;;;;;;;26.98;16.20;;;;;;;15.10;52.70;102569.19;5169691;28;20850;-52
2022/03/15 09:56:20;;;;;;;30.40;15.27;;;;;;;15.16;52.65;102565.13;5166867;28;20786;-58
2022/03/15 09:58:53;;;;;;;29.27;14.70;;;;;;;15.33;52.39;102556.47;5154156;28;20503;-55
2022/03/15 10:01:27;;;;;;;32.63;16.60;;;;;;;15.53;51.99;102552.00;5168511;28;20417;-55
2022/03/15 10:03:59;;;;;;;33.22;15.52;;;;;;;15.67;51.76;102553.44;5169754;28;20913;-52
2022/03/15 10:06:32;;;;;;;28.05;13.52;;;;;;;15.79;51.71;102554.09;5158693;28;20899;-56
2022/03/15 10:09:05;;;;;;;23.90;14.37;;;;;;;15.94;51.27;102546.50;5168385;28;20412;-55
2022/03/15 10:11:38;;;;;;;26.98;13.57;;;;;;;16.11;50.84;102551.94;5169623;28;20508;-56
2022/03/15 10:14:12;;;;;;;22.90;11.52;;;;;;;15.98;50.78;102532.78;5170997;28;20981;-55
2022/03/15 10:16:46;;;;;;;22.48;10.32;;;;;;;16.09;50.48;102555.75;5168617;28;20437;-60
2022/03/15 10:19:19;;;;;;;21.40;9.77;;;;;;;16.09;50.29;102542.41;5166842;28;20424;-52
2022/03/15 10:21:53;;;;;;;22.37;9.47;;;;;;;16.13;50.08;102534.00;5162960;28;20405;-55
2022/03/15 10:24:29;;;;;;;18.38;8.45;;;;;;;15.76;49.74;102461.16;5155747;28;20444;-56
2022/03/15 10:27:03;;;;;;;22.00;9.30;;;;;;;16.32;49.44;102532.22;5167941;28;20540;-54
2022/03/15 10:29:36;;;;;;;18.42;8.73;;;;;;;16.36;49.09;102522.97;5167732;28;20979;-57
2022/03/15 10:32:10;;;;;;;16.25;8.27;;;;;;;16.18;48.84;102488.22;5167147;28;20534;-54
2022/03/15 10:34:42;;;;;;;19.38;8.15;;;;;;;16.52;48.71;102525.00;5165680;28;20480;-58
2022/03/15 10:37:15;;;;;;;17.38;8.85;;;;;;;16.66;48.22;102518.31;5167958;28;20483;-56
2022/03/15 10:39:49;;;;;;;20.52;9.00;;;;;;;16.79;47.98;102518.84;5168369;28;20416;-55
2022/03/15 10:42:24;;;;;;;17.75;8.20;;;;;;;16.79;47.74;102518.84;5163973;28;20519;-60
2022/03/15 10:44:58;;;;;;;20.55;9.23;;;;;;;16.69;47.87;102510.88;5158840;28;20515;-56
2022/03/15 10:47:32;;;;;;;25.40;8.95;;;;;;;16.67;47.64;102504.00;5166521;28;20901;-59
2022/03/15 10:50:07;;;;;;;15.20;7.75;;;;;;;16.63;47.44;102490.13;5167296;28;20446;-56
2022/03/15 10:52:41;;;;;;;25.27;9.23;;;;;;;16.79;47.10;102500.19;5165757;28;20844;-55
2022/03/15 10:55:17;;;;;;;19.33;9.20;;;;;;;16.85;46.79;102490.72;5167926;28;20877;-53
2022/03/15 10:57:53;;;;;;;19.95;9.07;;;;;;;16.71;46.72;102492.88;5168018;28;20502;-51
2022/03/15 11:00:28;;;;;;;21.87;10.03;;;;;;;16.45;46.76;102470.59;5165614;28;20907;-57
2022/03/15 11:03:02;;;;;;;17.20;8.90;;;;;;;16.55;46.62;102490.88;5167177;28;20892;-52
2022/03/15 11:05:38;;;;;;;18.67;8.43;;;;;;;16.58;46.29;102485.22;5168025;28;20505;-55
2022/03/15 11:08:12;;;;;;;17.67;8.35;;;;;;;16.54;46.28;102473.19;5165858;28;20414;-54
2022/03/15 11:10:50;;;;;;;20.08;8.18;;;;;;;16.59;46.03;102481.56;5157834;28;20810;-56
2022/03/15 11:13:29;;;;;;;22.65;7.40;;;;;;;16.74;45.63;102473.06;5164628;28;20492;-57
2022/03/15 11:16:04;;;;;;;18.60;6.45;;;;;;;16.78;45.60;102469.13;5164991;28;20440;-56
2022/03/15 11:18:39;;;;;;;19.90;5.90;;;;;;;16.84;45.47;102468.53;5167444;28;20504;-56
2022/03/15 11:21:13;;;;;;;11.85;4.90;;;;;;;16.89;45.25;102471.59;5168464;28;20433;-54
2022/03/15 11:23:48;;;;;;;17.57;5.10;;;;;;;16.96;45.02;102469.97;5172340;28;20479;-54
2022/03/15 11:26:24;;;;;;;12.85;5.50;;;;;;;17.00;44.83;102462.50;5165317;28;20518;-54
2022/03/15 11:28:58;;;;;;;10.93;5.15;;;;;;;17.07;44.63;102460.09;5172556;28;20969;-52
2022/03/15 11:31:33;;;;;;;13.07;6.18;;;;;;;17.05;44.45;102466.41;5189838;28;20482;-53
2022/03/15 11:34:07;;;;;;;12.88;5.40;;;;;;;17.06;44.37;102461.91;5176251;28;20516;-56
2022/03/15 11:36:40;;;;;;;11.75;5.07;;;;;;;17.04;44.03;102454.06;5175866;28;20843;-55
2022/03/15 11:39:12;;;;;;;14.40;4.90;;;;;;;16.82;44.08;102435.84;5166877;28;20491;-54
2022/03/15 11:41:46;;;;;;;14.55;5.30;;;;;;;16.82;44.03;102451.84;5166677;28;20413;-55
2022/03/15 11:44:26;;;;;;;13.82;4.65;;;;;;;16.74;43.98;102457.88;5169372;28;20404;-57
2022/03/15 11:47:11;;;;;;;13.77;4.75;;;;;;;16.76;43.83;102444.44;5167263;28;20424;-56